sensor_id;sensor_type;location;lat;lon;timestamp;P1;durP1;ratioP1;P2;durP2;ratioP2
50341;SDS011;76053;42.682;23.286;2024-01-27T00:02:50;1999.90;;;999.90;;
50341;SDS011;76053;42.682;23.286;2024-01-27T00:05:51;1999.90;;;999.90;;
50341;SDS011;76053;42.682;23.286;2024-01-27T00:08:52;1999.90;;;999.90;;
50341;SDS011;76053;42.682;23.286;2024-01-27T00:11:53;1999.90;;;999.90;;
50341;SDS011;76053;42.682;23.286;2024-01-27T00:14:53;1999.90;;;999.90;;
50341;SDS011;76053;42.682;23.286;2024-01-27T00:17:54;1999.90;;;999.90;;
50341;SDS011;76053;42.682;23.286;2024-01-27T00:20:54;1999.90;;;999.90;;
50341;SDS011;76053;42.682;23.286;2024-01-27T00:23:55;1999.90;;;999.90;;
50341;SDS011;76053;42.682;23.286;2024-01-27T00:27:00;1999.90;;;999.90;;
50341;SDS011;76053;42.682;23.286;2024-01-27T00:30:01;1999.90;;;999.90;;
50341;SDS011;76053;42.682;23.286;2024-01-27T00:33:01;1999.90;;;999.90;;
50341;SDS011;76053;42.682;23.286;2024-01-27T00:36:02;1999.90;;;999.90;;
50341;SDS011;76053;42.682;23.286;2024-01-27T00:39:03;1999.90;;;999.90;;
50341;SDS011;76053;42.682;23.286;2024-01-27T00:42:04;1999.90;;;999.90;;
50341;SDS011;76053;42.682;23.286;2024-01-27T00:45:05;1999.90;;;999.90;;
50341;SDS011;76053;42.682;23.286;2024-01-27T00:48:06;1999.90;;;999.90;;
50341;SDS011;76053;42.682;23.286;2024-01-27T00:51:06;1999.90;;;997.42;;
50341;SDS011;76053;42.682;23.286;2024-01-27T00:54:07;1999.90;;;999.90;;
50341;SDS011;76053;42.682;23.286;2024-01-27T00:57:07;1999.90;;;999.90;;
50341;SDS011;76053;42.682;23.286;2024-01-27T01:15:59;1999.90;;;999.90;;
50341;SDS011;76053;42.682;23.286;2024-01-27T01:18:59;1999.90;;;999.33;;
50341;SDS011;76053;42.682;23.286;2024-01-27T01:22:00;1999.90;;;975.80;;
50341;SDS011;76053;42.682;23.286;2024-01-27T01:25:00;1999.90;;;993.63;;
50341;SDS011;76053;42.682;23.286;2024-01-27T01:28:01;1576.22;;;842.63;;
50341;SDS011;76053;42.682;23.286;2024-01-27T01:31:01;1274.53;;;745.78;;
50341;SDS011;76053;42.682;23.286;2024-01-27T01:34:02;1803.75;;;945.30;;
50341;SDS011;76053;42.682;23.286;2024-01-27T01:37:02;1407.75;;;811.47;;
50341;SDS011;76053;42.682;23.286;2024-01-27T01:40:03;1486.35;;;838.53;;
50341;SDS011;76053;42.682;23.286;2024-01-27T01:43:08;1753.15;;;946.97;;
50341;SDS011;76053;42.682;23.286;2024-01-27T01:46:10;1640.78;;;897.63;;
50341;SDS011;76053;42.682;23.286;2024-01-27T01:49:11;1257.47;;;760.17;;
50341;SDS011;76053;42.682;23.286;2024-01-27T01:52:11;1145.97;;;711.90;;
50341;SDS011;76053;42.682;23.286;2024-01-27T01:55:12;1096.93;;;706.22;;
50341;SDS011;76053;42.682;23.286;2024-01-27T01:58:13;1022.10;;;676.17;;
50341;SDS011;76053;42.682;23.286;2024-01-27T02:01:13;924.53;;;623.90;;
50341;SDS011;76053;42.682;23.286;2024-01-27T02:04:15;851.17;;;593.75;;
50341;SDS011;76053;42.682;23.286;2024-01-27T02:07:15;892.70;;;610.92;;
50341;SDS011;76053;42.682;23.286;2024-01-27T02:10:16;803.58;;;566.70;;
50341;SDS011;76053;42.682;23.286;2024-01-27T02:13:21;787.33;;;557.05;;
50341;SDS011;76053;42.682;23.286;2024-01-27T02:16:22;716.20;;;513.63;;
50341;SDS011;76053;42.682;23.286;2024-01-27T02:19:23;646.78;;;469.17;;
50341;SDS011;76053;42.682;23.286;2024-01-27T02:22:24;671.97;;;484.83;;
50341;SDS011;76053;42.682;23.286;2024-01-27T02:25:24;673.20;;;494.27;;
50341;SDS011;76053;42.682;23.286;2024-01-27T02:28:25;709.05;;;518.53;;
50341;SDS011;76053;42.682;23.286;2024-01-27T02:31:25;636.08;;;476.50;;
50341;SDS011;76053;42.682;23.286;2024-01-27T02:34:26;530.65;;;398.30;;
50341;SDS011;76053;42.682;23.286;2024-01-27T02:37:26;463.98;;;355.67;;
50341;SDS011;76053;42.682;23.286;2024-01-27T02:40:27;490.30;;;369.20;;
50341;SDS011;76053;42.682;23.286;2024-01-27T02:43:27;476.40;;;354.50;;
50341;SDS011;76053;42.682;23.286;2024-01-27T02:46:27;524.72;;;402.10;;
50341;SDS011;76053;42.682;23.286;2024-01-27T02:49:28;386.13;;;282.58;;
50341;SDS011;76053;42.682;23.286;2024-01-27T02:52:28;293.13;;;217.90;;
50341;SDS011;76053;42.682;23.286;2024-01-27T02:55:29;213.00;;;157.88;;
50341;SDS011;76053;42.682;23.286;2024-01-27T02:58:29;163.30;;;119.53;;
50341;SDS011;76053;42.682;23.286;2024-01-27T03:01:30;122.30;;;96.45;;
50341;SDS011;76053;42.682;23.286;2024-01-27T03:04:30;147.50;;;112.95;;
50341;SDS011;76053;42.682;23.286;2024-01-27T03:07:31;169.70;;;133.82;;
50341;SDS011;76053;42.682;23.286;2024-01-27T03:10:31;172.80;;;144.30;;
50341;SDS011;76053;42.682;23.286;2024-01-27T03:13:32;132.82;;;112.50;;
50341;SDS011;76053;42.682;23.286;2024-01-27T03:16:32;59.00;;;46.78;;
50341;SDS011;76053;42.682;23.286;2024-01-27T03:19:33;43.38;;;33.25;;
50341;SDS011;76053;42.682;23.286;2024-01-27T03:22:33;29.55;;;23.60;;
50341;SDS011;76053;42.682;23.286;2024-01-27T03:25:34;26.83;;;19.52;;
50341;SDS011;76053;42.682;23.286;2024-01-27T03:28:34;23.65;;;15.20;;
50341;SDS011;76053;42.682;23.286;2024-01-27T03:31:35;20.33;;;13.48;;
50341;SDS011;76053;42.682;23.286;2024-01-27T03:34:35;17.67;;;12.32;;
50341;SDS011;76053;42.682;23.286;2024-01-27T03:37:36;17.73;;;11.65;;
50341;SDS011;76053;42.682;23.286;2024-01-27T03:40:36;20.27;;;11.00;;
50341;SDS011;76053;42.682;23.286;2024-01-27T03:43:37;14.20;;;9.45;;
50341;SDS011;76053;42.682;23.286;2024-01-27T03:46:37;17.73;;;9.98;;
50341;SDS011;76053;42.682;23.286;2024-01-27T03:49:39;13.20;;;8.95;;
50341;SDS011;76053;42.682;23.286;2024-01-27T03:52:39;13.80;;;8.55;;
50341;SDS011;76053;42.682;23.286;2024-01-27T03:55:41;14.05;;;7.70;;
50341;SDS011;76053;42.682;23.286;2024-01-27T03:58:42;13.48;;;7.57;;
50341;SDS011;76053;42.682;23.286;2024-01-27T04:01:42;16.70;;;7.93;;
50341;SDS011;76053;42.682;23.286;2024-01-27T04:04:43;11.10;;;6.80;;
50341;SDS011;76053;42.682;23.286;2024-01-27T04:07:43;9.30;;;5.97;;
50341;SDS011;76053;42.682;23.286;2024-01-27T04:10:44;10.27;;;5.97;;
50341;SDS011;76053;42.682;23.286;2024-01-27T04:13:44;11.65;;;6.13;;
50341;SDS011;76053;42.682;23.286;2024-01-27T04:16:44;7.90;;;5.63;;
50341;SDS011;76053;42.682;23.286;2024-01-27T04:19:45;9.13;;;5.88;;
50341;SDS011;76053;42.682;23.286;2024-01-27T04:22:46;10.70;;;5.55;;
50341;SDS011;76053;42.682;23.286;2024-01-27T04:25:46;9.52;;;5.60;;
50341;SDS011;76053;42.682;23.286;2024-01-27T04:28:47;11.25;;;5.50;;
50341;SDS011;76053;42.682;23.286;2024-01-27T04:31:47;8.98;;;4.45;;
50341;SDS011;76053;42.682;23.286;2024-01-27T04:34:48;8.52;;;4.65;;
50341;SDS011;76053;42.682;23.286;2024-01-27T04:37:48;7.60;;;4.25;;
50341;SDS011;76053;42.682;23.286;2024-01-27T04:40:49;9.90;;;5.28;;
50341;SDS011;76053;42.682;23.286;2024-01-27T04:43:50;6.65;;;3.72;;
50341;SDS011;76053;42.682;23.286;2024-01-27T04:46:52;6.13;;;4.07;;
50341;SDS011;76053;42.682;23.286;2024-01-27T04:49:53;7.00;;;4.25;;
50341;SDS011;76053;42.682;23.286;2024-01-27T04:52:54;5.85;;;3.80;;
50341;SDS011;76053;42.682;23.286;2024-01-27T04:55:54;7.85;;;4.35;;
50341;SDS011;76053;42.682;23.286;2024-01-27T04:58:55;9.35;;;4.45;;
50341;SDS011;76053;42.682;23.286;2024-01-27T05:01:56;5.60;;;3.40;;
50341;SDS011;76053;42.682;23.286;2024-01-27T05:04:56;6.75;;;3.60;;
50341;SDS011;76053;42.682;23.286;2024-01-27T05:07:56;6.00;;;3.28;;
50341;SDS011;76053;42.682;23.286;2024-01-27T05:10:57;7.40;;;2.42;;
50341;SDS011;76053;42.682;23.286;2024-01-27T05:14:00;6.03;;;3.25;;
50341;SDS011;76053;42.682;23.286;2024-01-27T05:17:01;7.07;;;3.28;;
50341;SDS011;76053;42.682;23.286;2024-01-27T05:20:02;6.53;;;2.92;;
50341;SDS011;76053;42.682;23.286;2024-01-27T05:23:04;6.55;;;2.78;;
50341;SDS011;76053;42.682;23.286;2024-01-27T05:26:07;5.88;;;2.75;;
50341;SDS011;76053;42.682;23.286;2024-01-27T05:29:10;6.25;;;3.05;;
50341;SDS011;76053;42.682;23.286;2024-01-27T05:32:11;4.63;;;3.40;;
50341;SDS011;76053;42.682;23.286;2024-01-27T05:35:11;9.48;;;3.53;;
50341;SDS011;76053;42.682;23.286;2024-01-27T05:38:12;5.15;;;2.42;;
50341;SDS011;76053;42.682;23.286;2024-01-27T05:41:13;4.20;;;2.30;;
50341;SDS011;76053;42.682;23.286;2024-01-27T05:44:14;4.53;;;2.67;;
50341;SDS011;76053;42.682;23.286;2024-01-27T05:47:14;4.70;;;2.65;;
50341;SDS011;76053;42.682;23.286;2024-01-27T05:50:15;4.25;;;2.22;;
50341;SDS011;76053;42.682;23.286;2024-01-27T05:53:15;3.95;;;2.72;;
50341;SDS011;76053;42.682;23.286;2024-01-27T05:56:16;5.13;;;2.63;;
50341;SDS011;76053;42.682;23.286;2024-01-27T05:59:21;4.47;;;2.45;;
50341;SDS011;76053;42.682;23.286;2024-01-27T06:02:21;5.78;;;3.20;;
50341;SDS011;76053;42.682;23.286;2024-01-27T06:05:22;3.85;;;2.35;;
50341;SDS011;76053;42.682;23.286;2024-01-27T06:08:22;3.55;;;2.50;;
50341;SDS011;76053;42.682;23.286;2024-01-27T06:11:26;3.92;;;3.05;;
50341;SDS011;76053;42.682;23.286;2024-01-27T06:14:26;4.50;;;2.13;;
50341;SDS011;76053;42.682;23.286;2024-01-27T06:17:27;5.03;;;2.85;;
50341;SDS011;76053;42.682;23.286;2024-01-27T06:20:27;4.55;;;2.20;;
50341;SDS011;76053;42.682;23.286;2024-01-27T06:23:28;5.30;;;2.55;;
50341;SDS011;76053;42.682;23.286;2024-01-27T06:26:28;3.83;;;2.03;;
50341;SDS011;76053;42.682;23.286;2024-01-27T06:29:29;5.18;;;2.03;;
50341;SDS011;76053;42.682;23.286;2024-01-27T06:32:29;5.28;;;2.33;;
50341;SDS011;76053;42.682;23.286;2024-01-27T06:35:29;4.95;;;2.70;;
50341;SDS011;76053;42.682;23.286;2024-01-27T06:38:30;4.03;;;2.25;;
50341;SDS011;76053;42.682;23.286;2024-01-27T06:41:31;4.20;;;2.17;;
50341;SDS011;76053;42.682;23.286;2024-01-27T06:44:32;5.10;;;2.45;;
50341;SDS011;76053;42.682;23.286;2024-01-27T06:47:32;5.20;;;2.00;;
50341;SDS011;76053;42.682;23.286;2024-01-27T06:50:33;4.07;;;2.38;;
50341;SDS011;76053;42.682;23.286;2024-01-27T06:53:34;5.50;;;3.13;;
50341;SDS011;76053;42.682;23.286;2024-01-27T06:56:34;3.17;;;2.13;;
50341;SDS011;76053;42.682;23.286;2024-01-27T06:59:35;4.68;;;1.77;;
50341;SDS011;76053;42.682;23.286;2024-01-27T07:02:35;3.13;;;1.90;;
50341;SDS011;76053;42.682;23.286;2024-01-27T07:05:36;4.78;;;2.33;;
50341;SDS011;76053;42.682;23.286;2024-01-27T07:08:40;5.55;;;2.83;;
50341;SDS011;76053;42.682;23.286;2024-01-27T07:11:40;4.78;;;2.45;;
50341;SDS011;76053;42.682;23.286;2024-01-27T07:14:41;5.65;;;3.50;;
50341;SDS011;76053;42.682;23.286;2024-01-27T07:17:41;6.35;;;2.92;;
50341;SDS011;76053;42.682;23.286;2024-01-27T07:20:42;5.80;;;2.65;;
50341;SDS011;76053;42.682;23.286;2024-01-27T07:23:43;3.63;;;2.25;;
50341;SDS011;76053;42.682;23.286;2024-01-27T07:26:43;4.35;;;2.38;;
50341;SDS011;76053;42.682;23.286;2024-01-27T07:29:44;5.95;;;3.25;;
50341;SDS011;76053;42.682;23.286;2024-01-27T07:32:44;11.38;;;2.42;;
50341;SDS011;76053;42.682;23.286;2024-01-27T07:35:45;41.78;;;12.30;;
50341;SDS011;76053;42.682;23.286;2024-01-27T07:38:45;136.07;;;39.97;;
50341;SDS011;76053;42.682;23.286;2024-01-27T07:41:46;97.38;;;35.17;;
50341;SDS011;76053;42.682;23.286;2024-01-27T07:44:48;101.38;;;30.63;;
50341;SDS011;76053;42.682;23.286;2024-01-27T07:47:49;90.03;;;30.35;;
50341;SDS011;76053;42.682;23.286;2024-01-27T07:50:50;76.70;;;28.58;;
50341;SDS011;76053;42.682;23.286;2024-01-27T07:53:50;72.40;;;26.10;;
50341;SDS011;76053;42.682;23.286;2024-01-27T07:56:51;75.78;;;25.98;;
50341;SDS011;76053;42.682;23.286;2024-01-27T07:59:51;68.40;;;21.95;;
50341;SDS011;76053;42.682;23.286;2024-01-27T08:02:52;66.85;;;25.20;;
50341;SDS011;76053;42.682;23.286;2024-01-27T08:05:53;66.13;;;22.65;;
50341;SDS011;76053;42.682;23.286;2024-01-27T08:08:56;60.60;;;22.35;;
50341;SDS011;76053;42.682;23.286;2024-01-27T08:11:56;63.05;;;21.38;;
50341;SDS011;76053;42.682;23.286;2024-01-27T08:14:57;50.20;;;19.65;;
50341;SDS011;76053;42.682;23.286;2024-01-27T08:17:58;57.35;;;21.25;;
50341;SDS011;76053;42.682;23.286;2024-01-27T08:20:58;53.90;;;19.35;;
50341;SDS011;76053;42.682;23.286;2024-01-27T08:23:58;51.83;;;21.63;;
50341;SDS011;76053;42.682;23.286;2024-01-27T08:26:59;49.13;;;18.88;;
50341;SDS011;76053;42.682;23.286;2024-01-27T08:30:01;49.60;;;18.05;;
50341;SDS011;76053;42.682;23.286;2024-01-27T08:33:01;45.20;;;17.58;;
50341;SDS011;76053;42.682;23.286;2024-01-27T08:36:02;46.10;;;17.80;;
50341;SDS011;76053;42.682;23.286;2024-01-27T08:39:02;42.00;;;17.40;;
50341;SDS011;76053;42.682;23.286;2024-01-27T08:42:03;39.38;;;16.42;;
50341;SDS011;76053;42.682;23.286;2024-01-27T08:45:04;35.42;;;15.85;;
50341;SDS011;76053;42.682;23.286;2024-01-27T08:48:04;39.78;;;15.30;;
50341;SDS011;76053;42.682;23.286;2024-01-27T08:51:07;34.15;;;13.52;;
50341;SDS011;76053;42.682;23.286;2024-01-27T08:54:09;34.95;;;14.27;;
50341;SDS011;76053;42.682;23.286;2024-01-27T08:57:09;34.75;;;13.90;;
50341;SDS011;76053;42.682;23.286;2024-01-27T09:00:10;36.22;;;13.70;;
50341;SDS011;76053;42.682;23.286;2024-01-27T09:03:13;33.38;;;13.43;;
50341;SDS011;76053;42.682;23.286;2024-01-27T09:06:14;29.20;;;12.65;;
50341;SDS011;76053;42.682;23.286;2024-01-27T09:09:14;28.50;;;12.20;;
50341;SDS011;76053;42.682;23.286;2024-01-27T09:12:15;32.65;;;12.45;;
50341;SDS011;76053;42.682;23.286;2024-01-27T09:15:15;29.05;;;11.93;;
50341;SDS011;76053;42.682;23.286;2024-01-27T09:18:16;28.25;;;12.63;;
50341;SDS011;76053;42.682;23.286;2024-01-27T09:21:17;28.95;;;11.13;;
50341;SDS011;76053;42.682;23.286;2024-01-27T09:24:22;31.67;;;11.98;;
50341;SDS011;76053;42.682;23.286;2024-01-27T09:27:23;25.58;;;10.65;;
50341;SDS011;76053;42.682;23.286;2024-01-27T09:30:23;23.50;;;9.98;;
50341;SDS011;76053;42.682;23.286;2024-01-27T09:33:23;26.10;;;10.23;;
50341;SDS011;76053;42.682;23.286;2024-01-27T09:36:24;22.73;;;9.55;;
50341;SDS011;76053;42.682;23.286;2024-01-27T09:39:25;23.08;;;10.50;;
50341;SDS011;76053;42.682;23.286;2024-01-27T09:42:26;21.83;;;9.75;;
50341;SDS011;76053;42.682;23.286;2024-01-27T09:45:28;22.27;;;8.85;;
50341;SDS011;76053;42.682;23.286;2024-01-27T09:48:29;17.42;;;9.25;;
50341;SDS011;76053;42.682;23.286;2024-01-27T09:51:30;18.60;;;9.27;;
50341;SDS011;76053;42.682;23.286;2024-01-27T09:54:30;16.75;;;7.45;;
50341;SDS011;76053;42.682;23.286;2024-01-27T09:57:31;20.20;;;8.60;;
50341;SDS011;76053;42.682;23.286;2024-01-27T10:00:33;18.95;;;7.72;;
50341;SDS011;76053;42.682;23.286;2024-01-27T10:03:35;13.65;;;7.22;;
50341;SDS011;76053;42.682;23.286;2024-01-27T10:06:40;13.18;;;6.65;;
50341;SDS011;76053;42.682;23.286;2024-01-27T10:09:41;17.20;;;8.60;;
50341;SDS011;76053;42.682;23.286;2024-01-27T10:12:43;14.13;;;6.55;;
50341;SDS011;76053;42.682;23.286;2024-01-27T10:15:45;15.00;;;7.30;;
50341;SDS011;76053;42.682;23.286;2024-01-27T10:18:45;12.48;;;6.43;;
50341;SDS011;76053;42.682;23.286;2024-01-27T10:21:46;12.73;;;5.82;;
50341;SDS011;76053;42.682;23.286;2024-01-27T10:24:47;11.88;;;6.57;;
50341;SDS011;76053;42.682;23.286;2024-01-27T10:27:48;12.60;;;5.65;;
50341;SDS011;76053;42.682;23.286;2024-01-27T10:30:48;9.18;;;5.07;;
50341;SDS011;76053;42.682;23.286;2024-01-27T10:33:52;11.38;;;4.40;;
50341;SDS011;76053;42.682;23.286;2024-01-27T10:36:54;14.20;;;4.55;;
50341;SDS011;76053;42.682;23.286;2024-01-27T10:40:01;7.88;;;4.57;;
50341;SDS011;76053;42.682;23.286;2024-01-27T10:43:05;11.63;;;5.18;;
50341;SDS011;76053;42.682;23.286;2024-01-27T10:46:08;8.63;;;4.63;;
50341;SDS011;76053;42.682;23.286;2024-01-27T10:49:09;18.08;;;6.55;;
50341;SDS011;76053;42.682;23.286;2024-01-27T10:52:12;31.67;;;11.45;;
50341;SDS011;76053;42.682;23.286;2024-01-27T10:55:16;36.25;;;11.88;;
50341;SDS011;76053;42.682;23.286;2024-01-27T10:58:17;32.63;;;10.88;;
50341;SDS011;76053;42.682;23.286;2024-01-27T11:01:18;33.55;;;12.65;;
50341;SDS011;76053;42.682;23.286;2024-01-27T11:04:22;41.78;;;14.80;;
50341;SDS011;76053;42.682;23.286;2024-01-27T11:07:24;43.90;;;13.05;;
50341;SDS011;76053;42.682;23.286;2024-01-27T11:10:27;37.42;;;14.57;;
50341;SDS011;76053;42.682;23.286;2024-01-27T11:13:32;32.45;;;14.10;;
50341;SDS011;76053;42.682;23.286;2024-01-27T11:16:34;43.72;;;15.40;;
50341;SDS011;76053;42.682;23.286;2024-01-27T11:19:35;34.63;;;13.80;;
50341;SDS011;76053;42.682;23.286;2024-01-27T11:22:35;39.97;;;14.50;;
50341;SDS011;76053;42.682;23.286;2024-01-27T11:25:37;29.70;;;12.77;;
50341;SDS011;76053;42.682;23.286;2024-01-27T11:28:37;753.67;;;581.55;;
50341;SDS011;76053;42.682;23.286;2024-01-27T11:31:39;1552.47;;;905.63;;
50341;SDS011;76053;42.682;23.286;2024-01-27T11:34:44;1399.00;;;836.30;;
50341;SDS011;76053;42.682;23.286;2024-01-27T11:37:44;1796.78;;;944.72;;
50341;SDS011;76053;42.682;23.286;2024-01-27T11:40:45;1999.90;;;999.90;;
50341;SDS011;76053;42.682;23.286;2024-01-27T11:43:53;1999.90;;;999.90;;
50341;SDS011;76053;42.682;23.286;2024-01-27T11:46:57;1999.90;;;974.78;;
50341;SDS011;76053;42.682;23.286;2024-01-27T11:49:59;1999.90;;;955.97;;
50341;SDS011;76053;42.682;23.286;2024-01-27T11:52:59;1851.55;;;901.17;;
50341;SDS011;76053;42.682;23.286;2024-01-27T11:56:00;1713.40;;;864.47;;
50341;SDS011;76053;42.682;23.286;2024-01-27T11:59:01;1662.43;;;851.30;;
50341;SDS011;76053;42.682;23.286;2024-01-27T12:02:02;1478.68;;;793.60;;
50341;SDS011;76053;42.682;23.286;2024-01-27T12:05:04;1361.75;;;746.53;;
50341;SDS011;76053;42.682;23.286;2024-01-27T12:08:07;1999.90;;;998.67;;
50341;SDS011;76053;42.682;23.286;2024-01-27T12:11:08;1999.90;;;999.90;;
50341;SDS011;76053;42.682;23.286;2024-01-27T12:14:09;1999.90;;;999.90;;
50341;SDS011;76053;42.682;23.286;2024-01-27T12:17:09;1999.90;;;999.90;;
50341;SDS011;76053;42.682;23.286;2024-01-27T12:20:14;1999.90;;;999.90;;
50341;SDS011;76053;42.682;23.286;2024-01-27T12:23:16;1999.90;;;999.90;;
50341;SDS011;76053;42.682;23.286;2024-01-27T12:26:17;1999.90;;;996.47;;
50341;SDS011;76053;42.682;23.286;2024-01-27T12:29:19;1999.90;;;965.65;;
50341;SDS011;76053;42.682;23.286;2024-01-27T12:32:20;1999.90;;;960.28;;
50341;SDS011;76053;42.682;23.286;2024-01-27T12:35:21;1994.00;;;932.45;;
50341;SDS011;76053;42.682;23.286;2024-01-27T12:38:21;1768.68;;;881.67;;
50341;SDS011;76053;42.682;23.286;2024-01-27T12:41:24;1786.45;;;904.58;;
50341;SDS011;76053;42.682;23.286;2024-01-27T12:44:27;1999.90;;;999.90;;
50341;SDS011;76053;42.682;23.286;2024-01-27T12:47:28;1999.90;;;999.90;;
50341;SDS011;76053;42.682;23.286;2024-01-27T12:50:28;1999.90;;;999.90;;
50341;SDS011;76053;42.682;23.286;2024-01-27T12:53:30;1999.90;;;999.90;;
50341;SDS011;76053;42.682;23.286;2024-01-27T12:56:31;1999.90;;;999.90;;
50341;SDS011;76053;42.682;23.286;2024-01-27T12:59:31;1999.90;;;999.90;;
50341;SDS011;76053;42.682;23.286;2024-01-27T13:02:32;1999.90;;;999.90;;
50341;SDS011;76053;42.682;23.286;2024-01-27T13:05:32;1999.90;;;999.90;;
50341;SDS011;76053;42.682;23.286;2024-01-27T13:08:34;1999.90;;;999.90;;
50341;SDS011;76053;42.682;23.286;2024-01-27T13:11:35;1999.90;;;999.90;;
50341;SDS011;76053;42.682;23.286;2024-01-27T13:14:35;1999.90;;;999.90;;
50341;SDS011;76053;42.682;23.286;2024-01-27T13:17:36;1999.90;;;999.90;;
50341;SDS011;76053;42.682;23.286;2024-01-27T13:20:37;1999.90;;;999.90;;
50341;SDS011;76053;42.682;23.286;2024-01-27T13:23:37;1999.90;;;955.35;;
50341;SDS011;76053;42.682;23.286;2024-01-27T13:26:38;1876.70;;;913.88;;
50341;SDS011;76053;42.682;23.286;2024-01-27T13:29:38;1999.90;;;967.25;;
50341;SDS011;76053;42.682;23.286;2024-01-27T13:32:39;1999.90;;;999.90;;
50341;SDS011;76053;42.682;23.286;2024-01-27T13:35:39;1999.90;;;999.90;;
50341;SDS011;76053;42.682;23.286;2024-01-27T13:38:40;1999.90;;;999.90;;
50341;SDS011;76053;42.682;23.286;2024-01-27T13:41:40;1999.90;;;999.90;;
50341;SDS011;76053;42.682;23.286;2024-01-27T13:44:41;1999.90;;;999.90;;
50341;SDS011;76053;42.682;23.286;2024-01-27T13:47:41;1999.90;;;999.90;;
50341;SDS011;76053;42.682;23.286;2024-01-27T13:50:42;1999.90;;;999.90;;
50341;SDS011;76053;42.682;23.286;2024-01-27T13:53:43;1999.90;;;999.90;;
50341;SDS011;76053;42.682;23.286;2024-01-27T13:56:43;1999.90;;;999.90;;
50341;SDS011;76053;42.682;23.286;2024-01-27T14:09:15;1999.90;;;999.90;;
50341;SDS011;76053;42.682;23.286;2024-01-27T14:12:16;1999.90;;;999.90;;
50341;SDS011;76053;42.682;23.286;2024-01-27T14:15:17;1999.90;;;999.90;;
50341;SDS011;76053;42.682;23.286;2024-01-27T14:18:17;1999.90;;;999.90;;
50341;SDS011;76053;42.682;23.286;2024-01-27T14:21:20;1999.90;;;973.55;;
50341;SDS011;76053;42.682;23.286;2024-01-27T14:24:21;1984.72;;;915.83;;
50341;SDS011;76053;42.682;23.286;2024-01-27T14:27:21;1672.72;;;846.35;;
50341;SDS011;76053;42.682;23.286;2024-01-27T14:30:25;1507.10;;;792.80;;
50341;SDS011;76053;42.682;23.286;2024-01-27T14:33:26;1999.90;;;999.90;;
50341;SDS011;76053;42.682;23.286;2024-01-27T14:36:26;1999.90;;;991.13;;
50341;SDS011;76053;42.682;23.286;2024-01-27T14:39:27;1122.63;;;707.88;;
50341;SDS011;76053;42.682;23.286;2024-01-27T14:42:27;1005.05;;;671.85;;
50341;SDS011;76053;42.682;23.286;2024-01-27T14:45:28;1238.82;;;761.08;;
50341;SDS011;76053;42.682;23.286;2024-01-27T14:48:29;1011.17;;;657.53;;
50341;SDS011;76053;42.682;23.286;2024-01-27T14:51:30;1149.80;;;762.72;;
50341;SDS011;76053;42.682;23.286;2024-01-27T14:54:30;1166.40;;;781.38;;
50341;SDS011;76053;42.682;23.286;2024-01-27T14:57:31;1208.53;;;805.55;;
50341;SDS011;76053;42.682;23.286;2024-01-27T15:00:31;1222.65;;;795.03;;
50341;SDS011;76053;42.682;23.286;2024-01-27T15:03:32;1999.90;;;999.90;;
50341;SDS011;76053;42.682;23.286;2024-01-27T15:06:33;1985.30;;;981.40;;
50341;SDS011;76053;42.682;23.286;2024-01-27T15:09:33;1904.25;;;942.72;;
50341;SDS011;76053;42.682;23.286;2024-01-27T15:12:34;1999.90;;;987.13;;
50341;SDS011;76053;42.682;23.286;2024-01-27T15:15:34;1999.90;;;999.90;;
50341;SDS011;76053;42.682;23.286;2024-01-27T15:18:35;1999.90;;;999.90;;
50341;SDS011;76053;42.682;23.286;2024-01-27T15:21:40;1999.90;;;996.83;;
50341;SDS011;76053;42.682;23.286;2024-01-27T15:24:40;1999.90;;;999.90;;
50341;SDS011;76053;42.682;23.286;2024-01-27T15:27:41;1999.90;;;999.90;;
50341;SDS011;76053;42.682;23.286;2024-01-27T15:30:43;1999.90;;;981.13;;
50341;SDS011;76053;42.682;23.286;2024-01-27T15:33:47;1999.90;;;999.90;;
50341;SDS011;76053;42.682;23.286;2024-01-27T15:36:48;1999.90;;;999.90;;
50341;SDS011;76053;42.682;23.286;2024-01-27T15:39:48;1999.90;;;981.83;;
50341;SDS011;76053;42.682;23.286;2024-01-27T15:42:50;1999.90;;;974.30;;
50341;SDS011;76053;42.682;23.286;2024-01-27T15:45:50;1862.60;;;912.00;;
50341;SDS011;76053;42.682;23.286;2024-01-27T15:48:54;1999.90;;;999.90;;
50341;SDS011;76053;42.682;23.286;2024-01-27T15:51:54;1999.90;;;999.90;;
50341;SDS011;76053;42.682;23.286;2024-01-27T15:54:55;1999.90;;;983.15;;
50341;SDS011;76053;42.682;23.286;2024-01-27T15:57:55;1999.90;;;999.90;;
50341;SDS011;76053;42.682;23.286;2024-01-27T16:00:56;1999.90;;;999.90;;
50341;SDS011;76053;42.682;23.286;2024-01-27T16:03:56;1999.90;;;999.90;;
50341;SDS011;76053;42.682;23.286;2024-01-27T16:06:56;1999.90;;;999.90;;
50341;SDS011;76053;42.682;23.286;2024-01-27T16:09:57;1999.90;;;999.90;;
50341;SDS011;76053;42.682;23.286;2024-01-27T16:13:01;1999.90;;;999.90;;
50341;SDS011;76053;42.682;23.286;2024-01-27T16:16:02;1999.90;;;999.90;;
50341;SDS011;76053;42.682;23.286;2024-01-27T16:19:02;1999.90;;;999.90;;
50341;SDS011;76053;42.682;23.286;2024-01-27T16:22:03;1999.90;;;999.90;;
50341;SDS011;76053;42.682;23.286;2024-01-27T16:25:03;1999.90;;;969.63;;
50341;SDS011;76053;42.682;23.286;2024-01-27T16:28:04;1884.22;;;927.75;;
50341;SDS011;76053;42.682;23.286;2024-01-27T16:31:05;1999.90;;;989.25;;
50341;SDS011;76053;42.682;23.286;2024-01-27T16:34:06;1999.90;;;999.90;;
50341;SDS011;76053;42.682;23.286;2024-01-27T16:37:06;1999.90;;;999.90;;
50341;SDS011;76053;42.682;23.286;2024-01-27T16:40:07;1999.90;;;999.90;;
50341;SDS011;76053;42.682;23.286;2024-01-27T16:43:08;1999.90;;;999.90;;
50341;SDS011;76053;42.682;23.286;2024-01-27T16:46:09;1999.90;;;999.90;;
50341;SDS011;76053;42.682;23.286;2024-01-27T16:49:10;1999.90;;;999.50;;
50341;SDS011;76053;42.682;23.286;2024-01-27T16:52:11;1999.90;;;995.60;;
50341;SDS011;76053;42.682;23.286;2024-01-27T16:55:12;1919.50;;;939.20;;
50341;SDS011;76053;42.682;23.286;2024-01-27T16:58:12;1890.15;;;948.55;;
50341;SDS011;76053;42.682;23.286;2024-01-27T17:01:13;1567.55;;;859.28;;
50341;SDS011;76053;42.682;23.286;2024-01-27T17:04:14;1679.38;;;902.17;;
50341;SDS011;76053;42.682;23.286;2024-01-27T17:07:14;1343.18;;;797.65;;
50341;SDS011;76053;42.682;23.286;2024-01-27T17:10:15;1187.45;;;741.05;;
50341;SDS011;76053;42.682;23.286;2024-01-27T17:13:16;1035.68;;;675.92;;
50341;SDS011;76053;42.682;23.286;2024-01-27T17:16:16;891.50;;;609.92;;
50341;SDS011;76053;42.682;23.286;2024-01-27T17:19:17;1996.93;;;968.28;;
50341;SDS011;76053;42.682;23.286;2024-01-27T17:22:17;1999.90;;;969.30;;
50341;SDS011;76053;42.682;23.286;2024-01-27T17:25:18;1342.00;;;793.13;;
50341;SDS011;76053;42.682;23.286;2024-01-27T17:28:18;1999.90;;;999.90;;
50341;SDS011;76053;42.682;23.286;2024-01-27T17:31:19;1622.60;;;891.00;;
50341;SDS011;76053;42.682;23.286;2024-01-27T17:34:19;1372.38;;;807.97;;